createdAt,value
2022-11-01T00:00:57.127Z,41.00
2022-11-01T00:03:27.649Z,41.00
2022-11-01T00:06:00.536Z,41.00
2022-11-01T00:08:31.173Z,41.00
2022-11-01T00:11:15.977Z,40.90
2022-11-01T00:13:50.167Z,40.80
2022-11-01T00:16:20.960Z,40.90
2022-11-01T00:18:51.012Z,40.90
2022-11-01T00:21:21.258Z,40.90
2022-11-01T00:23:51.382Z,40.80
2022-11-01T00:26:23.180Z,40.90
2022-11-01T00:28:53.521Z,40.80
2022-11-01T00:31:25.210Z,40.80
2022-11-01T00:33:55.132Z,40.80
2022-11-01T00:36:25.250Z,40.80
2022-11-01T00:38:55.293Z,40.90
2022-11-01T00:41:25.324Z,41.00
2022-11-01T00:43:55.346Z,41.60
2022-11-01T00:46:25.561Z,41.10
2022-11-01T00:48:55.736Z,41.20
2022-11-01T00:51:26.279Z,41.30
2022-11-01T00:53:57.451Z,41.40
2022-11-01T00:56:27.491Z,41.50
2022-11-01T00:58:57.482Z,41.50
2022-11-01T01:01:27.757Z,41.70
2022-11-01T01:04:06.875Z,41.50
2022-11-01T01:06:37.390Z,41.70
2022-11-01T01:09:13.920Z,41.80
2022-11-01T01:11:44.010Z,41.90
2022-11-01T01:14:14.752Z,41.90
2022-11-01T01:16:44.719Z,42.10
2022-11-01T01:19:14.739Z,41.80
2022-11-01T01:21:45.166Z,42.00
2022-11-01T01:24:16.062Z,42.20
2022-11-01T01:26:46.263Z,41.70
2022-11-01T01:29:17.476Z,41.70
2022-11-01T01:31:47.418Z,41.80
2022-11-01T01:34:18.037Z,41.80
2022-11-01T01:36:48.960Z,41.80
2022-11-01T01:39:19.284Z,43.40
2022-11-01T01:41:58.412Z,47.10
2022-11-01T01:44:53.511Z,47.50
2022-11-01T01:47:40.115Z,47.20
2022-11-01T01:50:29.472Z,44.60
2022-11-01T01:53:19.876Z,47.30
2022-11-01T01:56:07.834Z,47.60
2022-11-01T01:58:42.167Z,46.80
2022-11-01T02:01:13.646Z,46.30
2022-11-01T02:03:43.751Z,47.20
2022-11-01T02:06:15.385Z,44.20
2022-11-01T02:08:50.416Z,47.00
2022-11-01T02:11:20.618Z,43.70
2022-11-01T02:13:50.664Z,42.70
2022-11-01T02:16:20.551Z,42.40
2022-11-01T02:19:27.186Z,42.80
2022-11-01T02:22:13.658Z,42.10
2022-11-01T02:25:19.110Z,41.80
2022-11-01T02:28:30.320Z,42.10
2022-11-01T02:31:28.443Z,42.10
2022-11-01T02:34:00.108Z,42.30
2022-11-01T02:36:37.899Z,42.00
2022-11-01T02:39:16.177Z,41.80
2022-11-01T02:41:58.417Z,41.10
2022-11-01T02:44:33.528Z,41.20
2022-11-01T02:47:03.758Z,41.20
2022-11-01T02:49:46.479Z,41.20
2022-11-01T02:52:19.881Z,41.20
2022-11-01T02:55:02.225Z,39.90
2022-11-01T02:57:39.662Z,38.50
2022-11-01T03:00:23.163Z,39.50
2022-11-01T03:02:56.768Z,40.00
2022-11-01T03:05:29.849Z,41.00
2022-11-01T03:08:03.655Z,40.50
2022-11-01T03:11:00.942Z,40.70
2022-11-01T03:13:57.779Z,40.80
2022-11-01T03:16:38.124Z,41.00
2022-11-01T03:19:14.437Z,41.40
2022-11-01T03:22:03.378Z,41.10
2022-11-01T03:24:54.247Z,41.10
2022-11-01T03:27:30.254Z,41.30
2022-11-01T03:30:08.626Z,41.50
2022-11-01T03:32:48.262Z,41.30
2022-11-01T03:35:26.417Z,41.40
2022-11-01T03:38:03.616Z,41.50
2022-11-01T03:40:33.686Z,41.40
2022-11-01T03:43:06.494Z,41.30
2022-11-01T03:45:41.619Z,41.20
2022-11-01T03:48:11.795Z,40.40
2022-11-01T03:50:53.735Z,39.80
2022-11-01T03:53:25.370Z,39.50
2022-11-01T03:55:55.743Z,39.50
2022-11-01T03:58:25.817Z,39.90
2022-11-01T04:00:57.143Z,40.10
2022-11-01T04:03:30.149Z,40.60
2022-11-01T04:06:00.199Z,40.60
2022-11-01T04:08:30.136Z,40.70
2022-11-01T04:11:00.550Z,40.70
2022-11-01T04:13:30.819Z,40.90
2022-11-01T04:16:19.495Z,41.00
2022-11-01T04:19:09.995Z,41.70
2022-11-01T04:21:43.622Z,40.90
2022-11-01T04:24:22.036Z,41.00
2022-11-01T04:26:52.166Z,40.50
2022-11-01T04:29:22.139Z,40.50
2022-11-01T04:31:52.194Z,40.70
2022-11-01T04:34:42.595Z,40.80
2022-11-01T04:37:12.990Z,40.90
2022-11-01T04:39:43.079Z,41.10
2022-11-01T04:42:13.074Z,41.10
2022-11-01T04:44:43.117Z,41.10
2022-11-01T04:47:13.192Z,41.40
2022-11-01T04:49:43.402Z,40.90
2022-11-01T04:52:13.426Z,40.90
2022-11-01T04:54:43.388Z,41.20
2022-11-01T04:57:33.481Z,41.50
2022-11-01T05:00:03.698Z,41.40
2022-11-01T05:02:33.778Z,40.40
2022-11-01T05:05:03.812Z,40.80
2022-11-01T05:07:33.863Z,40.70
2022-11-01T05:10:04.475Z,40.70
2022-11-01T05:12:34.456Z,40.60
2022-11-01T05:15:05.232Z,40.40
2022-11-01T05:17:35.331Z,40.50
2022-11-01T05:20:05.488Z,40.40
2022-11-01T05:22:35.754Z,40.50
2022-11-01T05:25:06.238Z,40.30
2022-11-01T05:27:36.856Z,40.20
2022-11-01T05:30:07.890Z,40.30
2022-11-01T05:32:39.249Z,40.20
2022-11-01T05:35:09.592Z,40.30
2022-11-01T05:37:39.707Z,40.10
2022-11-01T05:40:10.465Z,39.90
2022-11-01T05:42:41.104Z,40.00
2022-11-01T05:45:11.867Z,40.20
2022-11-01T05:47:42.535Z,39.90
2022-11-01T05:50:13.648Z,39.90
2022-11-01T05:52:43.765Z,39.80
2022-11-01T05:55:16.948Z,40.30
2022-11-01T06:00:21.732Z,40.20
2022-11-01T06:02:52.166Z,40.40
2022-11-01T06:05:22.226Z,40.20
2022-11-01T06:07:52.399Z,40.20
2022-11-01T06:10:22.675Z,40.50
2022-11-01T06:12:52.805Z,40.50
2022-11-01T06:15:23.253Z,40.60
2022-11-01T06:18:00.381Z,40.50
2022-11-01T06:20:31.703Z,40.50
2022-11-01T06:23:01.881Z,40.40
2022-11-01T06:25:32.016Z,40.60
2022-11-01T06:28:02.576Z,40.50
2022-11-01T06:30:32.955Z,40.50
2022-11-01T06:33:03.629Z,40.50
2022-11-01T06:35:34.679Z,40.60
2022-11-01T06:38:08.536Z,40.80
2022-11-01T06:40:39.162Z,40.80
2022-11-01T06:43:09.514Z,40.80
2022-11-01T06:45:39.758Z,40.90
2022-11-01T06:48:10.131Z,40.60
2022-11-01T06:50:40.289Z,40.90
2022-11-01T06:53:11.332Z,40.80
2022-11-01T06:55:41.426Z,40.70
2022-11-01T06:58:11.568Z,40.70
2022-11-01T07:00:41.922Z,40.70
2022-11-01T07:03:13.605Z,40.70
2022-11-01T07:05:43.972Z,40.90
2022-11-01T07:08:14.615Z,41.20
2022-11-01T07:10:44.928Z,40.70
2022-11-01T07:13:15.558Z,40.80
2022-11-01T07:15:46.673Z,40.90
2022-11-01T07:18:16.853Z,41.10
2022-11-01T07:23:22.340Z,41.10
2022-11-01T07:25:55.437Z,41.60
2022-11-01T07:28:25.857Z,41.40
2022-11-01T07:30:56.312Z,41.40
2022-11-01T07:33:26.522Z,41.20
2022-11-01T07:35:56.782Z,41.40
2022-11-01T07:38:26.813Z,41.20
2022-11-01T07:40:58.367Z,41.30
2022-11-01T07:43:29.523Z,41.10
2022-11-01T07:46:13.628Z,41.20
2022-11-01T07:48:44.121Z,41.10
2022-11-01T07:51:14.528Z,41.10
2022-11-01T07:53:44.632Z,40.90
2022-11-01T07:56:14.839Z,41.10
2022-11-01T07:58:45.703Z,41.30
2022-11-01T08:01:16.270Z,41.80
2022-11-01T08:03:46.752Z,41.40
2022-11-01T08:06:17.690Z,42.00
2022-11-01T08:08:47.725Z,41.70
2022-11-01T08:11:21.681Z,41.60
2022-11-01T08:13:52.549Z,40.90
2022-11-01T08:16:23.299Z,40.60
2022-11-01T08:18:54.181Z,40.00
2022-11-01T08:21:24.899Z,39.30
2022-11-01T08:23:55.354Z,38.70
2022-11-01T08:26:25.743Z,38.50
2022-11-01T08:28:55.965Z,39.10
2022-11-01T08:31:26.121Z,39.60
2022-11-01T08:33:56.446Z,39.90
2022-11-01T08:36:26.699Z,40.00
2022-11-01T08:38:56.711Z,39.80
2022-11-01T08:41:26.819Z,40.10
2022-11-01T08:44:02.275Z,40.10
2022-11-01T08:46:33.539Z,40.30
2022-11-01T08:49:04.009Z,40.30
2022-11-01T08:51:37.294Z,40.60
2022-11-01T08:54:11.120Z,40.50
2022-11-01T08:56:41.589Z,40.50
2022-11-01T08:59:14.672Z,40.40
2022-11-01T09:01:47.418Z,40.60
2022-11-01T09:04:17.894Z,40.70
2022-11-01T09:06:50.817Z,40.50
2022-11-01T09:09:21.608Z,40.60
2022-11-01T09:11:52.419Z,40.60
2022-11-01T09:14:25.342Z,40.60
2022-11-01T09:16:57.843Z,40.70
2022-11-01T09:19:31.112Z,40.70
2022-11-01T09:22:01.583Z,40.90
2022-11-01T09:24:37.395Z,40.00
2022-11-01T09:27:10.385Z,40.60
2022-11-01T09:29:41.000Z,40.50
2022-11-01T09:32:11.504Z,40.90
2022-11-01T09:34:45.081Z,40.90
2022-11-01T09:37:15.447Z,41.30
2022-11-01T09:39:45.841Z,41.10
2022-11-01T09:42:33.640Z,41.00
2022-11-01T09:45:25.324Z,41.10
2022-11-01T09:47:57.096Z,40.90
2022-11-01T09:50:28.825Z,40.70
2022-11-01T09:53:01.598Z,41.20
2022-11-01T09:55:51.978Z,40.90
2022-11-01T09:58:39.906Z,40.90
2022-11-01T10:01:47.214Z,40.70
2022-11-01T10:04:35.913Z,40.70
2022-11-01T10:07:40.903Z,40.50
2022-11-01T10:10:33.936Z,40.70
2022-11-01T10:13:38.867Z,40.50
2022-11-01T10:16:20.761Z,40.90
2022-11-01T10:19:03.739Z,41.40
2022-11-01T10:21:55.693Z,41.80
2022-11-01T10:24:44.702Z,42.20
2022-11-01T10:27:20.955Z,41.60
2022-11-01T10:30:05.649Z,41.40
2022-11-01T10:32:37.697Z,41.40
2022-11-01T10:35:14.435Z,41.50
2022-11-01T10:38:11.436Z,42.00
2022-11-01T10:41:01.244Z,42.90
2022-11-01T10:43:31.181Z,43.30
2022-11-01T10:46:01.174Z,44.00
2022-11-01T10:48:35.948Z,43.70
2022-11-01T10:51:07.911Z,43.40
2022-11-01T10:53:42.989Z,43.30
2022-11-01T10:56:19.952Z,43.00
2022-11-01T10:59:03.329Z,43.10
2022-11-01T11:01:38.391Z,43.40
2022-11-01T11:04:09.013Z,43.90
2022-11-01T11:06:41.720Z,44.60
2022-11-01T11:09:39.611Z,44.50
2022-11-01T11:12:20.343Z,43.70
2022-11-01T11:14:59.070Z,44.70
2022-11-01T11:17:40.382Z,45.20
2022-11-01T11:20:12.940Z,45.20
2022-11-01T11:22:43.809Z,44.70
2022-11-01T11:25:23.968Z,44.40
2022-11-01T11:27:57.791Z,44.40
2022-11-01T11:30:33.847Z,45.10
2022-11-01T11:33:04.216Z,45.10
2022-11-01T11:35:34.545Z,44.70
2022-11-01T11:38:06.510Z,44.60
2022-11-01T11:40:46.909Z,44.50
2022-11-01T11:43:25.496Z,44.40
2022-11-01T11:46:06.007Z,45.10
2022-11-01T11:48:35.955Z,44.20
2022-11-01T11:51:07.283Z,44.20
2022-11-01T11:53:39.019Z,44.50
2022-11-01T11:56:10.491Z,44.20
2022-11-01T11:58:53.292Z,43.80
2022-11-01T12:01:23.484Z,43.80
2022-11-01T12:04:32.399Z,44.20
2022-11-01T12:07:02.415Z,44.30
2022-11-01T12:09:47.695Z,44.50
2022-11-01T12:12:24.698Z,44.70
2022-11-01T12:14:55.246Z,44.40
2022-11-01T12:17:30.813Z,44.40
2022-11-01T12:20:25.340Z,44.10
2022-11-01T12:23:36.743Z,44.20
2022-11-01T12:26:09.376Z,44.30
2022-11-01T12:29:02.742Z,44.20
2022-11-01T12:31:32.968Z,44.40
2022-11-01T12:34:23.699Z,44.50
2022-11-01T12:37:24.425Z,44.40
2022-11-01T12:39:59.630Z,44.30
2022-11-01T12:42:56.238Z,43.90
2022-11-01T12:46:04.164Z,44.40
2022-11-01T12:48:45.676Z,44.50
2022-11-01T12:51:39.207Z,44.30
2022-11-01T12:54:15.256Z,44.00
2022-11-01T12:56:45.148Z,44.10
2022-11-01T12:59:17.410Z,43.90
2022-11-01T13:01:55.076Z,44.00
2022-11-01T13:04:34.342Z,44.00
2022-11-01T13:07:16.133Z,43.90
2022-11-01T13:09:54.365Z,44.90
2022-11-01T13:12:33.507Z,44.10
2022-11-01T13:15:19.396Z,44.20
2022-11-01T13:18:20.597Z,44.20
2022-11-01T13:21:02.329Z,44.20
2022-11-01T13:23:39.649Z,43.90
2022-11-01T13:26:18.091Z,44.10
2022-11-01T13:29:21.943Z,44.10
2022-11-01T13:31:59.322Z,43.90
2022-11-01T13:35:11.696Z,43.90
2022-11-01T13:37:53.869Z,44.20
2022-11-01T13:40:29.939Z,44.00
2022-11-01T13:43:05.418Z,44.20
2022-11-01T13:45:35.841Z,44.20
2022-11-01T13:48:39.537Z,44.00
2022-11-01T13:51:35.025Z,44.10
2022-11-01T13:54:14.144Z,44.00
2022-11-01T13:56:48.082Z,44.20
2022-11-01T13:59:40.736Z,44.10
2022-11-01T14:03:09.241Z,44.20
2022-11-01T14:05:40.786Z,44.10
2022-11-01T14:08:16.537Z,44.20
2022-11-01T14:10:50.610Z,44.20
2022-11-01T14:13:33.683Z,44.10
2022-11-01T14:16:20.658Z,44.00
2022-11-01T14:19:05.966Z,44.30
2022-11-01T14:21:49.363Z,44.10
2022-11-01T14:24:34.600Z,44.00
2022-11-01T14:27:21.625Z,43.90
2022-11-01T14:29:53.006Z,44.00
2022-11-01T14:32:25.394Z,43.80
2022-11-01T14:35:01.878Z,41.30
2022-11-01T14:37:48.755Z,40.20
2022-11-01T14:40:32.947Z,42.80
2022-11-01T14:43:07.719Z,42.70
2022-11-01T14:45:46.069Z,43.40
2022-11-01T14:49:18.137Z,43.30
2022-11-01T14:51:49.072Z,43.70
2022-11-01T14:54:21.155Z,43.70
2022-11-01T14:56:53.337Z,43.70
2022-11-01T14:59:28.087Z,43.70
2022-11-01T15:02:09.166Z,43.80
2022-11-01T15:04:43.739Z,43.70
2022-11-01T15:07:30.869Z,42.90
2022-11-01T15:10:07.066Z,43.70
2022-11-01T15:12:47.480Z,43.60
2022-11-01T15:15:28.539Z,43.30
2022-11-01T15:18:06.652Z,43.90
2022-11-01T15:20:40.061Z,43.90
2022-11-01T15:23:16.124Z,43.90
2022-11-01T15:25:52.525Z,43.90
2022-11-01T15:28:27.318Z,44.00
2022-11-01T15:30:58.944Z,43.80
2022-11-01T15:33:32.065Z,43.80
2022-11-01T15:36:04.993Z,43.70
2022-11-01T15:38:56.171Z,43.20
2022-11-01T15:41:30.029Z,43.80
2022-11-01T15:44:07.267Z,43.90
2022-11-01T15:46:42.680Z,43.40
2022-11-01T15:49:18.784Z,43.30
2022-11-01T15:51:58.802Z,43.80
2022-11-01T15:54:42.216Z,44.00
2022-11-01T15:57:18.162Z,43.40
2022-11-01T16:00:00.648Z,43.90
2022-11-01T16:02:33.589Z,43.00
2022-11-01T16:05:05.299Z,44.20
2022-11-01T16:07:36.089Z,44.40
2022-11-01T16:10:06.929Z,44.70
2022-11-01T16:12:39.716Z,44.60
2022-11-01T16:15:34.105Z,44.50
2022-11-01T16:18:04.589Z,44.20
2022-11-01T16:20:36.838Z,44.60
2022-11-01T16:23:07.956Z,44.10
2022-11-01T16:25:39.642Z,44.00
2022-11-01T16:28:12.986Z,43.90
2022-11-01T16:30:48.159Z,43.80
2022-11-01T16:33:21.396Z,43.90
2022-11-01T16:36:11.729Z,43.90
2022-11-01T16:38:44.671Z,43.70
2022-11-01T16:41:26.056Z,43.70
2022-11-01T16:44:00.356Z,43.90
2022-11-01T16:46:31.661Z,43.90
2022-11-01T16:49:20.738Z,43.80
2022-11-01T16:51:51.898Z,43.90
2022-11-01T16:54:22.610Z,43.80
2022-11-01T16:56:56.869Z,44.00
2022-11-01T16:59:26.858Z,43.90
2022-11-01T17:01:59.302Z,43.90
2022-11-01T17:04:29.822Z,43.80
2022-11-01T17:07:10.090Z,44.00
2022-11-01T17:09:44.070Z,43.90
2022-11-01T17:12:15.364Z,43.90
2022-11-01T17:14:46.949Z,43.90
2022-11-01T17:17:20.212Z,44.00
2022-11-01T17:19:52.028Z,43.80
2022-11-01T17:22:23.670Z,44.00
2022-11-01T17:24:55.562Z,43.90
2022-11-01T17:27:25.728Z,44.00
2022-11-01T17:29:55.666Z,44.00
2022-11-01T17:32:26.064Z,43.90
2022-11-01T17:34:56.466Z,43.90
2022-11-01T17:37:26.403Z,43.90
2022-11-01T17:40:02.862Z,44.00
2022-11-01T17:42:34.316Z,44.00
2022-11-01T17:45:09.159Z,43.90
2022-11-01T17:47:41.866Z,44.00
2022-11-01T17:50:13.951Z,43.90
2022-11-01T17:52:44.877Z,43.90
2022-11-01T17:55:15.156Z,43.90
2022-11-01T17:57:45.849Z,43.90
2022-11-01T18:00:21.550Z,43.90
2022-11-01T18:02:52.654Z,43.90
2022-11-01T18:05:23.504Z,43.90
2022-11-01T18:07:53.893Z,44.00
2022-11-01T18:10:38.589Z,43.90
2022-11-01T18:13:33.330Z,44.00
2022-11-01T18:16:06.405Z,43.80
2022-11-01T18:19:10.687Z,43.90
2022-11-01T18:22:01.015Z,43.90
2022-11-01T18:24:40.691Z,43.90
2022-11-01T18:27:14.076Z,43.80
2022-11-01T18:29:49.751Z,43.90
2022-11-01T18:32:30.294Z,43.90
2022-11-01T18:35:35.152Z,43.80
2022-11-01T18:38:05.308Z,43.80
2022-11-01T18:40:47.926Z,43.90
2022-11-01T18:43:19.545Z,43.70
2022-11-01T18:46:18.809Z,43.90
2022-11-01T18:48:40.322Z,43.90
2022-11-01T18:51:14.800Z,43.80
2022-11-01T18:53:45.360Z,43.80
2022-11-01T18:56:25.768Z,43.80
2022-11-01T18:58:56.312Z,43.80
2022-11-01T19:01:35.530Z,43.80
2022-11-01T19:04:29.102Z,43.80
2022-11-01T19:07:09.427Z,43.80
2022-11-01T19:09:44.085Z,43.90
2022-11-01T19:12:27.061Z,43.70
2022-11-01T19:15:03.867Z,43.80
2022-11-01T19:17:38.531Z,43.70
2022-11-01T19:20:31.855Z,43.60
2022-11-01T19:23:05.341Z,43.70
2022-11-01T19:25:36.858Z,43.60
2022-11-01T19:28:32.079Z,43.60
2022-11-01T19:31:17.496Z,43.60
2022-11-01T19:33:47.957Z,43.70
2022-11-01T19:36:21.381Z,43.70
2022-11-01T19:38:51.746Z,43.80
2022-11-01T19:41:34.915Z,43.80
2022-11-01T19:44:13.321Z,43.60
2022-11-01T19:46:43.333Z,43.70
2022-11-01T19:49:33.176Z,43.70
2022-11-01T19:52:12.356Z,43.70
2022-11-01T19:54:42.953Z,43.70
2022-11-01T19:57:34.074Z,43.70
2022-11-01T20:00:23.659Z,43.60
2022-11-01T20:02:54.718Z,43.70
2022-11-01T20:05:27.603Z,43.60
2022-11-01T20:08:03.737Z,43.60
2022-11-01T20:10:34.085Z,43.50
2022-11-01T20:13:04.304Z,43.60
2022-11-01T20:15:34.541Z,43.60
2022-11-01T20:18:04.721Z,43.60
2022-11-01T20:20:35.071Z,43.60
2022-11-01T20:23:27.447Z,43.60
2022-11-01T20:25:55.123Z,43.50
2022-11-01T20:28:25.068Z,43.50
2022-11-01T20:30:55.001Z,43.60
2022-11-01T20:33:27.594Z,43.60
2022-11-01T20:35:57.721Z,43.50
2022-11-01T20:38:27.651Z,43.50
2022-11-01T20:40:57.597Z,43.60
2022-11-01T20:43:27.652Z,43.50
2022-11-01T20:45:57.640Z,43.50
2022-11-01T20:48:27.578Z,43.50
2022-11-01T20:50:57.637Z,43.50
2022-11-01T20:53:29.811Z,43.50
2022-11-01T20:55:59.695Z,43.50
2022-11-01T20:58:29.729Z,43.40
2022-11-01T21:00:59.769Z,43.40
2022-11-01T21:03:29.781Z,43.50
2022-11-01T21:05:59.761Z,43.60
2022-11-01T21:08:34.614Z,43.50
2022-11-01T21:11:05.573Z,43.40
2022-11-01T21:13:40.577Z,43.50
2022-11-01T21:16:15.408Z,43.30
2022-11-01T21:18:46.977Z,43.50
2022-11-01T21:21:17.018Z,43.40
2022-11-01T21:23:47.402Z,43.30
2022-11-01T21:26:48.994Z,43.30
2022-11-01T21:29:28.758Z,43.40
2022-11-01T21:31:58.860Z,43.30
2022-11-01T21:34:29.831Z,43.30
2022-11-01T21:37:00.180Z,43.40
2022-11-01T21:39:32.063Z,43.30
2022-11-01T21:42:26.564Z,43.20
2022-11-01T21:44:57.079Z,43.30
2022-11-01T21:47:33.890Z,43.20
2022-11-01T21:50:03.828Z,43.30
2022-11-01T21:52:33.806Z,43.20
2022-11-01T21:55:03.820Z,43.30
2022-11-01T21:57:33.935Z,43.20
2022-11-01T22:00:03.865Z,43.10
2022-11-01T22:02:34.365Z,43.20
2022-11-01T22:05:04.487Z,43.20
2022-11-01T22:07:35.339Z,43.20
2022-11-01T22:10:05.553Z,43.30
2022-11-01T22:12:35.414Z,43.20
2022-11-01T22:15:05.546Z,43.00
2022-11-01T22:17:35.508Z,43.10
2022-11-01T22:20:06.168Z,43.10
2022-11-01T22:22:38.253Z,43.10
2022-11-01T22:25:08.516Z,43.20
2022-11-01T22:27:38.476Z,43.10
2022-11-01T22:30:08.969Z,43.10
2022-11-01T22:32:38.931Z,43.00
2022-11-01T22:35:09.221Z,43.20
2022-11-01T22:37:39.123Z,43.20
2022-11-01T22:40:13.372Z,43.10
2022-11-01T22:42:43.392Z,43.00
2022-11-01T22:45:17.232Z,43.00
2022-11-01T22:47:48.051Z,43.10
2022-11-01T22:50:26.926Z,43.10
2022-11-01T22:52:56.899Z,43.10
2022-11-01T22:55:28.455Z,43.20
2022-11-01T22:58:32.945Z,43.20
2022-11-01T23:01:03.671Z,43.00
2022-11-01T23:03:37.361Z,42.90
2022-11-01T23:06:27.415Z,43.00
2022-11-01T23:09:01.026Z,42.90
2022-11-01T23:11:49.456Z,42.80
2022-11-01T23:14:37.611Z,43.00
2022-11-01T23:17:23.575Z,43.00
2022-11-01T23:19:57.454Z,43.00
2022-11-01T23:22:31.509Z,43.00
2022-11-01T23:25:02.680Z,42.90
2022-11-01T23:27:33.195Z,42.80
2022-11-01T23:30:03.791Z,42.90
2022-11-01T23:32:33.844Z,42.80
2022-11-01T23:35:18.690Z,42.80
2022-11-01T23:37:48.831Z,42.80
2022-11-01T23:40:20.835Z,42.90
2022-11-01T23:42:50.900Z,42.70
2022-11-01T23:45:37.484Z,42.80
2022-11-01T23:48:09.630Z,43.40
2022-11-01T23:50:39.612Z,42.70
2022-11-01T23:53:14.326Z,42.70
2022-11-01T23:55:49.392Z,42.70
2022-11-01T23:58:37.892Z,42.70
